createdAt,value
2023-04-06T00:00:33.898Z,102257.13
2023-04-06T00:02:35.763Z,102251.13
2023-04-06T00:04:37.661Z,102253.97
2023-04-06T00:06:39.232Z,102247.97
2023-04-06T00:08:42.569Z,102244.53
2023-04-06T00:10:46.508Z,102250.03
2023-04-06T00:12:48.135Z,102245.75
2023-04-06T00:14:50.032Z,102246.84
2023-04-06T00:16:54.340Z,102248.69
2023-04-06T00:18:56.031Z,102246.09
2023-04-06T00:20:57.689Z,102252.56
2023-04-06T00:22:59.300Z,102249.25
2023-04-06T00:25:02.628Z,102254.63
2023-04-06T00:27:04.678Z,102248.41
2023-04-06T00:29:06.432Z,102246.72
2023-04-06T00:31:08.593Z,102252.91
2023-04-06T00:33:10.356Z,102248.41
2023-04-06T00:35:12.216Z,102243.91
2023-04-06T00:37:14.043Z,102248.31
2023-04-06T00:39:16.776Z,102249.03
2023-04-06T00:41:21.476Z,102248.91
2023-04-06T00:43:23.305Z,102241.59
2023-04-06T00:45:25.076Z,102241.38
2023-04-06T00:47:27.118Z,102243.06
2023-04-06T00:49:28.946Z,102240.28
2023-04-06T00:51:30.814Z,102249.03
2023-04-06T00:53:32.461Z,102241.84
2023-04-06T00:55:34.339Z,102243.44
2023-04-06T00:57:37.526Z,102241.50
2023-04-06T00:59:39.570Z,102242.22
2023-04-06T01:01:41.526Z,102228.78
2023-04-06T01:03:43.884Z,102231.38
2023-04-06T01:05:45.539Z,102227.56
2023-04-06T01:07:47.236Z,102222.22
2023-04-06T01:09:49.069Z,102229.19
2023-04-06T01:11:50.710Z,102221.13
2023-04-06T01:13:54.295Z,102225.41
2023-04-06T01:15:56.618Z,102212.94
2023-04-06T01:17:58.765Z,102220.88
2023-04-06T01:20:00.428Z,102218.19
2023-04-06T01:22:02.023Z,102219.78
2023-04-06T01:24:06.335Z,102219.78
2023-04-06T01:26:08.235Z,102219.66
2023-04-06T01:28:09.881Z,102220.38
2023-04-06T01:30:12.479Z,102217.69
2023-04-06T01:32:14.374Z,102225.50
2023-04-06T01:34:16.451Z,102223.69
2023-04-06T01:36:18.006Z,102212.94
2023-04-06T01:38:20.051Z,102217.34
2023-04-06T01:40:23.619Z,102219.06
2023-04-06T01:42:25.205Z,102211.88
2023-04-06T01:44:27.257Z,102208.31
2023-04-06T01:46:29.140Z,102210.16
2023-04-06T01:48:31.376Z,102204.78
2023-04-06T01:50:33.197Z,102206.59
2023-04-06T01:52:36.489Z,102202.19
2023-04-06T01:54:38.063Z,102210.25
2023-04-06T01:56:41.516Z,102199.50
2023-04-06T01:58:43.554Z,102204.88
2023-04-06T02:00:45.137Z,102202.09
2023-04-06T02:02:46.734Z,102197.56
2023-04-06T02:04:50.113Z,102196.72
2023-04-06T02:06:51.672Z,102202.94
2023-04-06T02:08:53.207Z,102194.13
2023-04-06T02:10:54.759Z,102197.78
2023-04-06T02:12:58.173Z,102195.97
2023-04-06T02:15:00.015Z,102193.28
2023-04-06T02:17:01.875Z,102192.41
2023-04-06T02:19:03.452Z,102188.16
2023-04-06T02:21:05.016Z,102191.81
2023-04-06T02:23:06.613Z,102185.72
2023-04-06T02:25:08.970Z,102193.06
2023-04-06T02:27:12.543Z,102195.09
2023-04-06T02:29:15.454Z,102195.34
2023-04-06T02:31:17.113Z,102187.53
2023-04-06T02:33:18.790Z,102196.56
2023-04-06T02:35:23.557Z,102199.38
2023-04-06T02:37:25.389Z,102197.66
2023-04-06T02:39:27.247Z,102192.28
2023-04-06T02:41:29.561Z,102199.63
2023-04-06T02:43:31.640Z,102193.41
2023-04-06T02:45:35.043Z,102191.69
2023-04-06T02:47:36.767Z,102197.31
2023-04-06T02:49:38.863Z,102198.28
2023-04-06T02:51:40.444Z,102202.06
2023-04-06T02:53:42.037Z,102195.94
2023-04-06T02:55:44.171Z,102197.91
2023-04-06T02:57:45.855Z,102191.78
2023-04-06T02:59:47.698Z,102199.09
2023-04-06T03:01:50.778Z,102191.31
2023-04-06T03:03:52.633Z,102195.91
2023-04-06T03:05:54.490Z,102196.16
2023-04-06T03:07:56.354Z,102192.75
2023-04-06T03:09:58.114Z,102189.44
2023-04-06T03:11:59.633Z,102192.25
2023-04-06T03:14:01.483Z,102195.03
2023-04-06T03:16:03.354Z,102195.16
2023-04-06T03:18:06.753Z,102194.31
2023-04-06T03:20:09.403Z,102195.28
2023-04-06T03:22:11.519Z,102197.09
2023-04-06T03:24:13.359Z,102198.19
2023-04-06T03:26:15.405Z,102201.03
2023-04-06T03:28:17.271Z,102200.25
2023-04-06T03:30:19.122Z,102204.78
2023-04-06T03:32:21.214Z,102211.13
2023-04-06T03:34:24.376Z,102205.88
2023-04-06T03:36:26.187Z,102205.00
2023-04-06T03:38:27.876Z,102204.91
2023-04-06T03:40:29.681Z,102205.63
2023-04-06T03:42:34.154Z,102210.03
2023-04-06T03:44:36.102Z,102207.22
2023-04-06T03:46:38.395Z,102213.44
2023-04-06T03:48:39.973Z,102210.75
2023-04-06T03:50:43.088Z,102208.06
2023-04-06T03:52:45.005Z,102207.97
2023-04-06T03:54:46.613Z,102210.66
2023-04-06T03:56:48.745Z,102202.47
2023-04-06T03:58:50.330Z,102205.03
2023-04-06T04:00:52.485Z,102205.03
2023-04-06T04:02:57.253Z,102212.00
2023-04-06T04:04:58.987Z,102217.25
2023-04-06T04:07:02.320Z,102221.66
2023-04-06T04:09:03.917Z,102216.28
2023-04-06T04:11:05.561Z,102215.44
2023-04-06T04:13:09.994Z,102215.44
2023-04-06T04:15:11.659Z,102222.53
2023-04-06T04:17:13.634Z,102218.97
2023-04-06T04:19:15.258Z,102222.53
2023-04-06T04:21:17.052Z,102222.53
2023-04-06T04:23:20.226Z,102226.91
2023-04-06T04:25:21.824Z,102226.03
2023-04-06T04:27:23.725Z,102228.72
2023-04-06T04:29:25.527Z,102227.03
2023-04-06T04:31:27.220Z,102222.38
2023-04-06T04:33:28.852Z,102226.91
2023-04-06T04:35:31.424Z,102232.25
2023-04-06T04:37:33.232Z,102231.31
2023-04-06T04:39:36.775Z,102235.81
2023-04-06T04:41:38.681Z,102226.78
2023-04-06T04:43:40.215Z,102235.72
2023-04-06T04:45:41.848Z,102228.50
2023-04-06T04:47:43.842Z,102231.91
2023-04-06T04:49:45.945Z,102225.69
2023-04-06T04:51:48.339Z,102234.50
2023-04-06T04:53:50.178Z,102221.91
2023-04-06T04:55:53.257Z,102233.41
2023-04-06T04:57:54.808Z,102235.13
2023-04-06T04:59:58.043Z,102228.75
2023-04-06T05:02:00.038Z,102235.84
2023-04-06T05:04:02.226Z,102234.88
2023-04-06T05:06:04.512Z,102247.34
2023-04-06T05:08:06.818Z,102238.28
2023-04-06T05:10:09.301Z,102243.53
2023-04-06T05:12:12.944Z,102239.03
2023-04-06T05:14:14.706Z,102241.72
2023-04-06T05:16:17.000Z,102246.09
2023-04-06T05:18:20.036Z,102248.69
2023-04-06T05:20:22.013Z,102242.34
2023-04-06T05:22:23.636Z,102247.56
2023-04-06T05:24:26.720Z,102242.09
2023-04-06T05:26:28.357Z,102248.94
2023-04-06T05:28:31.514Z,102246.88
2023-04-06T05:30:33.104Z,102246.63
2023-04-06T05:32:35.231Z,102248.97
2023-04-06T05:34:37.882Z,102254.09
2023-04-06T05:36:40.082Z,102247.41
2023-04-06T05:38:42.125Z,102251.53
2023-04-06T05:40:49.178Z,102244.94
2023-04-06T05:42:53.110Z,102249.09
2023-04-06T05:44:56.447Z,102255.69
2023-04-06T05:46:58.333Z,102248.13
2023-04-06T05:48:59.873Z,102246.06
2023-04-06T05:51:01.647Z,102245.56
2023-04-06T05:53:03.488Z,102250.47
2023-04-06T05:55:05.925Z,102246.41
2023-04-06T05:57:07.735Z,102249.44
2023-04-06T05:59:10.322Z,102246.28
2023-04-06T06:01:13.965Z,102261.81
2023-04-06T06:03:15.846Z,102252.25
2023-04-06T06:05:18.700Z,102256.16
2023-04-06T06:07:20.494Z,102262.63
2023-04-06T06:09:22.286Z,102262.97
2023-04-06T06:11:23.890Z,102248.13
2023-04-06T06:13:25.651Z,102252.03
2023-04-06T06:15:27.504Z,102246.88
2023-04-06T06:17:31.203Z,102253.44
2023-04-06T06:19:33.133Z,102258.94
2023-04-06T06:21:34.693Z,102255.59
2023-04-06T06:23:36.338Z,102259.47
2023-04-06T06:25:38.133Z,102258.69
2023-04-06T06:27:39.921Z,102250.09
2023-04-06T06:29:41.578Z,102257.38
2023-04-06T06:31:43.260Z,102255.88
2023-04-06T06:33:46.417Z,102257.91
2023-04-06T06:35:48.159Z,102251.84
2023-04-06T06:37:49.926Z,102256.47
2023-04-06T06:39:51.507Z,102253.09
2023-04-06T06:41:53.185Z,102254.00
2023-04-06T06:43:54.774Z,102258.72
2023-04-06T06:45:56.543Z,102265.84
2023-04-06T06:47:58.523Z,102264.19
2023-04-06T06:50:01.682Z,102265.94
2023-04-06T06:52:03.724Z,102266.13
2023-04-06T06:54:05.702Z,102269.69
2023-04-06T06:56:07.773Z,102267.00
2023-04-06T06:58:09.316Z,102269.75
2023-04-06T07:00:13.510Z,102268.91
2023-04-06T07:02:15.491Z,102275.19
2023-04-06T07:04:17.368Z,102273.34
2023-04-06T07:06:21.063Z,102269.53
2023-04-06T07:08:26.179Z,102271.38
2023-04-06T07:10:28.369Z,102271.38
2023-04-06T07:12:30.444Z,102273.09
2023-04-06T07:14:32.327Z,102275.50
2023-04-06T07:16:34.352Z,102269.94
2023-04-06T07:18:36.423Z,102275.91
2023-04-06T07:20:38.097Z,102275.56
2023-04-06T07:22:43.248Z,102268.44
2023-04-06T07:24:46.491Z,102268.94
2023-04-06T07:26:48.543Z,102271.47
2023-04-06T07:28:50.082Z,102261.31
2023-04-06T07:30:51.892Z,102267.25
2023-04-06T07:32:53.695Z,102271.44
2023-04-06T07:34:55.529Z,102268.50
2023-04-06T07:36:57.128Z,102268.16
2023-04-06T07:39:00.463Z,102268.09
2023-04-06T07:41:02.022Z,102261.59
2023-04-06T07:43:03.697Z,102260.34
2023-04-06T07:45:07.000Z,102262.84
2023-04-06T07:47:08.641Z,102258.03
2023-04-06T07:49:10.264Z,102261.34
2023-04-06T07:51:12.050Z,102252.81
2023-04-06T07:53:13.638Z,102256.97
2023-04-06T07:55:16.925Z,102258.25
2023-04-06T07:57:19.307Z,102263.25
2023-04-06T07:59:20.901Z,102267.75
2023-04-06T08:01:22.808Z,102261.75
2023-04-06T08:03:24.639Z,102268.25
2023-04-06T08:05:26.822Z,102263.03
2023-04-06T08:07:28.698Z,102259.72
2023-04-06T08:09:30.227Z,102259.91
2023-04-06T08:11:33.145Z,102264.00
2023-04-06T08:13:34.978Z,102256.22
2023-04-06T08:15:36.928Z,102263.88
2023-04-06T08:17:38.619Z,102263.06
2023-04-06T08:19:40.503Z,102262.38
2023-04-06T08:21:42.597Z,102265.25
2023-04-06T08:23:44.449Z,102260.81
2023-04-06T08:25:46.036Z,102268.28
2023-04-06T08:27:49.388Z,102266.72
2023-04-06T08:29:51.688Z,102263.63
2023-04-06T08:31:53.516Z,102262.91
2023-04-06T08:33:55.325Z,102267.09
2023-04-06T08:35:56.985Z,102269.59
2023-04-06T08:37:58.571Z,102263.59
2023-04-06T08:40:00.266Z,102265.75
2023-04-06T08:42:02.379Z,102259.56
2023-04-06T08:44:05.857Z,102257.06
2023-04-06T08:46:07.660Z,102251.19
2023-04-06T08:48:09.836Z,102255.19
2023-04-06T08:50:11.884Z,102253.06
2023-04-06T08:52:13.506Z,102256.22
2023-04-06T08:54:15.874Z,102257.28
2023-04-06T08:56:17.865Z,102256.66
2023-04-06T08:58:34.971Z,102263.16
2023-04-06T09:00:41.617Z,102252.91
2023-04-06T09:02:46.533Z,102257.53
2023-04-06T09:04:49.609Z,102253.97
2023-04-06T09:06:51.320Z,102250.59
2023-04-06T09:08:53.100Z,102259.78
2023-04-06T09:10:54.746Z,102256.38
2023-04-06T09:13:04.416Z,102256.69
2023-04-06T09:15:07.437Z,102252.19
2023-04-06T09:17:21.228Z,102253.56
2023-04-06T09:19:22.826Z,102250.03
2023-04-06T09:21:25.941Z,102251.22
2023-04-06T09:23:27.868Z,102252.38
2023-04-06T09:25:29.985Z,102248.91
2023-04-06T09:27:32.778Z,102248.22
2023-04-06T09:29:34.438Z,102251.25
2023-04-06T09:31:36.258Z,102249.03
2023-04-06T09:33:40.733Z,102251.41
2023-04-06T09:35:51.101Z,102241.78
2023-04-06T09:37:53.571Z,102246.69
2023-04-06T09:40:04.348Z,102252.91
2023-04-06T09:42:06.135Z,102251.47
2023-04-06T09:44:09.751Z,102253.03
2023-04-06T09:46:12.124Z,102243.41
2023-04-06T09:48:13.979Z,102248.31
2023-04-06T09:50:17.523Z,102246.22
2023-04-06T09:52:21.049Z,102248.78
2023-04-06T09:54:27.072Z,102241.19
2023-04-06T09:56:32.232Z,102244.41
2023-04-06T09:58:37.840Z,102244.19
2023-04-06T10:00:48.838Z,102236.41
2023-04-06T10:02:56.057Z,102228.59
2023-04-06T10:05:02.438Z,102232.59
2023-04-06T10:07:08.066Z,102223.94
2023-04-06T10:09:10.144Z,102231.34
2023-04-06T10:11:11.973Z,102227.13
2023-04-06T10:13:13.909Z,102230.31
2023-04-06T10:15:15.503Z,102234.31
2023-04-06T10:17:17.096Z,102230.50
2023-04-06T10:19:24.713Z,102233.88
2023-04-06T10:21:28.915Z,102228.78
2023-04-06T10:23:35.067Z,102235.31
2023-04-06T10:25:36.760Z,102228.28
2023-04-06T10:27:38.803Z,102227.19
2023-04-06T10:29:47.847Z,102230.94
2023-04-06T10:31:50.143Z,102220.75
2023-04-06T10:33:55.353Z,102225.59
2023-04-06T10:35:57.568Z,102224.50
2023-04-06T10:38:03.442Z,102224.22
2023-04-06T10:40:18.703Z,102221.06
2023-04-06T10:42:25.201Z,102214.44
2023-04-06T10:44:26.818Z,102213.34
2023-04-06T10:46:29.510Z,102212.69
2023-04-06T10:49:11.088Z,102216.63
2023-04-06T10:51:14.315Z,102222.53
2023-04-06T10:53:22.764Z,102226.34
2023-04-06T10:55:27.091Z,102222.06
2023-04-06T10:57:29.203Z,102215.00
2023-04-06T10:59:31.462Z,102218.13
2023-04-06T11:01:33.600Z,102215.31
2023-04-06T11:03:44.187Z,102210.13
2023-04-06T11:05:47.726Z,102218.38
2023-04-06T11:07:49.876Z,102217.69
2023-04-06T11:10:11.291Z,102212.09
2023-04-06T11:12:23.962Z,102214.50
2023-04-06T11:14:25.754Z,102209.34
2023-04-06T11:16:29.370Z,102207.09
2023-04-06T11:18:31.076Z,102210.19
2023-04-06T11:20:32.717Z,102196.53
2023-04-06T11:22:34.311Z,102197.66
2023-04-06T11:24:36.127Z,102196.28
2023-04-06T11:26:41.997Z,102192.41
2023-04-06T11:28:45.171Z,102197.97
2023-04-06T11:30:47.955Z,102196.56
2023-04-06T11:32:49.902Z,102194.09
2023-04-06T11:34:51.539Z,102191.34
2023-04-06T11:36:57.151Z,102190.34
2023-04-06T11:38:59.001Z,102183.28
2023-04-06T11:41:02.325Z,102186.03
2023-04-06T11:43:05.342Z,102187.72
2023-04-06T11:45:10.089Z,102183.44
2023-04-06T11:47:12.669Z,102182.25
2023-04-06T11:49:17.038Z,102188.38
2023-04-06T11:51:23.400Z,102187.66
2023-04-06T11:53:25.342Z,102185.03
2023-04-06T11:55:27.303Z,102183.72
2023-04-06T11:57:30.620Z,102179.16
2023-04-06T11:59:32.340Z,102184.47
2023-04-06T12:01:39.253Z,102181.59
2023-04-06T12:03:41.398Z,102173.91
2023-04-06T12:05:43.814Z,102174.03
2023-04-06T12:07:45.467Z,102171.88
2023-04-06T12:09:47.314Z,102160.94
2023-04-06T12:11:49.130Z,102175.50
2023-04-06T12:13:50.706Z,102166.50
2023-04-06T12:15:52.386Z,102169.13
2023-04-06T12:17:55.571Z,102160.50
2023-04-06T12:20:05.142Z,102168.66
2023-04-06T12:22:11.272Z,102171.91
2023-04-06T12:24:12.860Z,102162.41
2023-04-06T12:26:14.706Z,102169.13
2023-04-06T12:28:16.363Z,102162.88
2023-04-06T12:30:18.605Z,102170.69
2023-04-06T12:32:20.417Z,102164.66
2023-04-06T12:34:23.624Z,102165.63
2023-04-06T12:36:25.273Z,102162.13
2023-04-06T12:38:27.549Z,102168.25
2023-04-06T12:40:29.144Z,102166.94
2023-04-06T12:42:30.969Z,102161.91
2023-04-06T12:44:32.796Z,102166.25
2023-04-06T12:46:34.655Z,102163.13
2023-04-06T12:48:36.812Z,102163.50
2023-04-06T12:50:40.226Z,102158.34
2023-04-06T12:52:42.101Z,102154.31
2023-04-06T12:54:43.694Z,102158.50
2023-04-06T12:56:45.574Z,102156.72
2023-04-06T12:58:47.419Z,102155.66
2023-04-06T13:00:50.517Z,102150.13
2023-04-06T13:02:52.464Z,102146.16
2023-04-06T13:04:54.184Z,102153.97
2023-04-06T13:06:57.699Z,102149.88
2023-04-06T13:08:59.539Z,102157.25
2023-04-06T13:11:01.617Z,102152.44
2023-04-06T13:13:03.265Z,102153.41
2023-04-06T13:15:06.187Z,102145.09
2023-04-06T13:17:08.421Z,102145.72
2023-04-06T13:19:10.313Z,102140.91
2023-04-06T13:21:15.402Z,102146.66
2023-04-06T13:23:18.384Z,102141.50
2023-04-06T13:25:19.986Z,102138.59
2023-04-06T13:27:21.583Z,102138.34
2023-04-06T13:29:23.389Z,102141.94
2023-04-06T13:31:25.367Z,102135.19
2023-04-06T13:33:27.386Z,102136.09
2023-04-06T13:35:29.039Z,102137.59
2023-04-06T13:37:30.660Z,102143.94
2023-04-06T13:39:34.080Z,102134.31
2023-04-06T13:41:35.917Z,102141.53
2023-04-06T13:43:37.561Z,102135.16
2023-04-06T13:45:40.677Z,102138.16
2023-04-06T13:47:42.361Z,102140.47
2023-04-06T13:49:44.130Z,102135.91
2023-04-06T13:51:45.731Z,102136.28
2023-04-06T13:53:47.425Z,102141.09
2023-04-06T13:55:55.278Z,102138.94
2023-04-06T13:57:57.107Z,102130.75
2023-04-06T13:59:59.095Z,102136.38
2023-04-06T14:02:01.291Z,102134.81
2023-04-06T14:04:03.464Z,102137.00
2023-04-06T14:08:17.373Z,102128.84
2023-04-06T14:10:18.971Z,102136.47
2023-04-06T14:12:22.095Z,102130.72
2023-04-06T14:14:24.863Z,102138.31
2023-04-06T14:16:26.641Z,102132.69
2023-04-06T14:18:28.469Z,102136.56
2023-04-06T14:20:33.362Z,102133.03
2023-04-06T14:22:35.820Z,102136.63
2023-04-06T14:24:37.452Z,102139.59
2023-04-06T14:26:40.903Z,102133.94
2023-04-06T14:28:44.453Z,102131.03
2023-04-06T14:30:46.053Z,102134.31
2023-04-06T14:32:47.929Z,102130.38
2023-04-06T14:34:49.814Z,102124.13
2023-04-06T14:36:51.914Z,102130.34
2023-04-06T14:38:53.583Z,102130.63
2023-04-06T14:40:55.223Z,102128.16
2023-04-06T14:42:57.865Z,102128.19
2023-04-06T14:45:01.404Z,102125.69
2023-04-06T14:47:04.478Z,102132.06
2023-04-06T14:49:06.862Z,102121.94
2023-04-06T14:51:08.787Z,102121.75
2023-04-06T14:53:10.367Z,102124.53
2023-04-06T14:55:12.441Z,102120.34
2023-04-06T14:57:14.658Z,102128.00
2023-04-06T14:59:16.439Z,102135.66
2023-04-06T15:01:20.354Z,102130.66
2023-04-06T15:03:22.822Z,102144.03
2023-04-06T15:05:24.899Z,102144.03
2023-04-06T15:07:26.557Z,102136.47
2023-04-06T15:09:28.373Z,102135.22
2023-04-06T15:11:30.941Z,102138.38
2023-04-06T15:13:32.525Z,102133.94
2023-04-06T15:15:34.500Z,102135.63
2023-04-06T15:17:37.488Z,102130.75
2023-04-06T15:19:39.084Z,102138.72
2023-04-06T15:21:41.284Z,102141.00
2023-04-06T15:23:42.922Z,102137.41
2023-04-06T15:25:44.815Z,102148.13
2023-04-06T15:27:46.551Z,102139.44
2023-04-06T15:29:48.263Z,102140.88
2023-04-06T15:31:49.976Z,102148.19
2023-04-06T15:33:53.135Z,102138.47
2023-04-06T15:35:55.034Z,102148.31
2023-04-06T15:37:57.021Z,102143.66
2023-04-06T15:40:00.301Z,102147.81
2023-04-06T15:42:03.602Z,102149.47
2023-04-06T15:44:05.502Z,102144.38
2023-04-06T15:48:09.582Z,102147.09
2023-04-06T15:50:14.312Z,102139.28
2023-04-06T15:52:16.161Z,102144.69
2023-04-06T15:54:18.139Z,102145.28
2023-04-06T15:56:19.991Z,102145.69
2023-04-06T15:58:22.031Z,102144.56
2023-04-06T16:00:23.916Z,102148.13
2023-04-06T16:02:26.297Z,102143.22
2023-04-06T16:04:28.459Z,102149.69
2023-04-06T16:06:31.410Z,102149.63
2023-04-06T16:08:33.051Z,102152.50
2023-04-06T16:10:34.819Z,102158.97
2023-04-06T16:12:36.444Z,102157.00
2023-04-06T16:14:38.113Z,102156.09
2023-04-06T16:16:40.749Z,102165.75
2023-04-06T16:18:42.739Z,102157.72
2023-04-06T16:20:44.343Z,102156.63
2023-04-06T16:22:47.509Z,102164.94
2023-04-06T16:24:49.141Z,102163.81
2023-04-06T16:26:50.981Z,102162.72
2023-04-06T16:28:52.666Z,102160.56
2023-04-06T16:30:54.429Z,102165.56
2023-04-06T16:32:56.337Z,102164.25
2023-04-06T16:34:57.962Z,102161.25
2023-04-06T16:36:59.670Z,102163.50
2023-04-06T16:39:03.076Z,102163.38
2023-04-06T16:41:04.896Z,102165.66
2023-04-06T16:43:06.466Z,102169.16
2023-04-06T16:45:08.483Z,102170.97
2023-04-06T16:47:10.051Z,102169.66
2023-04-06T16:49:11.861Z,102167.69
2023-04-06T16:51:13.715Z,102167.56
2023-04-06T16:53:15.318Z,102167.47
2023-04-06T16:55:18.917Z,102162.56
2023-04-06T16:57:20.691Z,102162.31
2023-04-06T16:59:22.729Z,102163.25
2023-04-06T17:01:28.306Z,102166.06
2023-04-06T17:03:30.842Z,102166.13
2023-04-06T17:05:32.714Z,102175.25
2023-04-06T17:07:34.321Z,102171.56
2023-04-06T17:09:36.140Z,102174.38
2023-04-06T17:11:46.533Z,102178.50
2023-04-06T17:13:50.110Z,102177.00
2023-04-06T17:15:51.735Z,102187.25
2023-04-06T17:17:53.648Z,102180.28
2023-04-06T17:19:55.247Z,102184.41
2023-04-06T17:21:56.993Z,102189.19
2023-04-06T17:23:58.611Z,102192.28
2023-04-06T17:26:04.011Z,102197.31
2023-04-06T17:28:08.441Z,102184.94
2023-04-06T17:30:11.464Z,102198.50
2023-04-06T17:32:13.327Z,102194.63
2023-04-06T17:34:14.987Z,102195.41
2023-04-06T17:36:16.842Z,102197.50
2023-04-06T17:38:18.603Z,102196.88
2023-04-06T17:40:20.225Z,102200.84
2023-04-06T17:44:24.912Z,102202.75
2023-04-06T17:46:26.560Z,102206.72
2023-04-06T17:48:28.319Z,102210.66
2023-04-06T17:50:29.935Z,102212.72
2023-04-06T17:52:32.436Z,102213.09
2023-04-06T17:54:34.753Z,102216.81
2023-04-06T17:56:36.403Z,102218.88
2023-04-06T17:58:38.523Z,102224.44
2023-04-06T18:00:41.710Z,102219.69
2023-04-06T18:02:43.409Z,102224.09
2023-04-06T18:04:45.230Z,102220.50
2023-04-06T18:06:47.279Z,102224.75
2023-04-06T18:08:49.043Z,102223.72
2023-04-06T18:10:50.924Z,102232.53
2023-04-06T18:12:52.781Z,102233.22
2023-04-06T18:14:54.638Z,102235.91
2023-04-06T18:16:57.647Z,102233.16
2023-04-06T18:19:00.575Z,102235.69
2023-04-06T18:21:03.920Z,102232.94
2023-04-06T18:23:05.761Z,102246.00
2023-04-06T18:25:08.725Z,102241.38
2023-04-06T18:27:11.063Z,102240.50
2023-04-06T18:29:12.903Z,102245.75
2023-04-06T18:31:14.730Z,102244.66
2023-04-06T18:33:17.655Z,102250.75
2023-04-06T18:35:19.725Z,102254.44
2023-04-06T18:37:21.554Z,102248.78
2023-04-06T18:39:23.099Z,102252.16
2023-04-06T18:41:24.719Z,102255.50
2023-04-06T18:43:26.480Z,102255.28
2023-04-06T18:45:28.055Z,102255.78
2023-04-06T18:47:30.085Z,102254.72
2023-04-06T18:49:33.460Z,102257.16
2023-04-06T18:51:35.036Z,102253.22
2023-04-06T18:53:38.537Z,102257.56
2023-04-06T18:55:41.710Z,102258.50
2023-04-06T18:57:43.561Z,102267.25
2023-04-06T18:59:45.348Z,102267.19
2023-04-06T19:01:47.367Z,102272.50
2023-04-06T19:03:49.202Z,102269.72
2023-04-06T19:05:52.504Z,102267.63
2023-04-06T19:07:54.361Z,102270.97
2023-04-06T19:09:56.391Z,102276.84
2023-04-06T19:11:58.102Z,102271.88
2023-04-06T19:14:00.234Z,102273.34
2023-04-06T19:16:02.095Z,102272.94
2023-04-06T19:18:04.059Z,102272.53
2023-04-06T19:20:07.243Z,102275.84
2023-04-06T19:22:10.440Z,102278.16
2023-04-06T19:24:12.230Z,102282.16
2023-04-06T19:26:14.911Z,102275.63
2023-04-06T19:28:16.731Z,102282.34
2023-04-06T19:30:18.356Z,102282.81
2023-04-06T19:32:20.065Z,102273.28
2023-04-06T19:34:21.782Z,102280.13
2023-04-06T19:36:23.687Z,102285.00
2023-04-06T19:38:28.457Z,102282.75
2023-04-06T19:40:30.827Z,102283.31
2023-04-06T19:42:32.670Z,102286.47
2023-04-06T19:44:34.481Z,102280.66
2023-04-06T19:46:36.622Z,102281.97
2023-04-06T19:48:38.270Z,102285.09
2023-04-06T19:50:40.139Z,102286.25
2023-04-06T19:52:41.699Z,102288.41
2023-04-06T19:54:45.346Z,102289.53
2023-04-06T19:56:46.896Z,102280.84
2023-04-06T19:58:48.962Z,102286.56
2023-04-06T20:00:50.833Z,102287.72
2023-04-06T20:02:53.048Z,102293.41
2023-04-06T20:04:55.055Z,102280.19
2023-04-06T20:06:57.261Z,102285.84
2023-04-06T20:08:59.297Z,102295.97
2023-04-06T20:11:04.750Z,102299.84
2023-04-06T20:13:06.665Z,102286.75
2023-04-06T20:15:09.389Z,102289.00
2023-04-06T20:17:11.024Z,102294.56
2023-04-06T20:19:12.915Z,102279.63
2023-04-06T20:21:17.186Z,102285.31
2023-04-06T20:23:19.013Z,102290.31
2023-04-06T20:25:20.642Z,102288.75
2023-04-06T20:27:23.749Z,102284.63
2023-04-06T20:29:25.797Z,102283.19
2023-04-06T20:31:27.876Z,102284.31
2023-04-06T20:33:29.518Z,102290.00
2023-04-06T20:35:31.427Z,102286.75
2023-04-06T20:37:34.282Z,102289.59
2023-04-06T20:39:36.136Z,102288.19
2023-04-06T20:41:37.769Z,102289.28
2023-04-06T20:43:40.706Z,102286.84
2023-04-06T20:45:42.667Z,102291.69
2023-04-06T20:47:44.607Z,102296.50
2023-04-06T20:49:46.389Z,102297.66
2023-04-06T20:51:48.013Z,102294.66
2023-04-06T20:53:49.816Z,102299.50
2023-04-06T20:55:51.647Z,102298.06
2023-04-06T20:57:53.575Z,102299.31
2023-04-06T20:59:56.572Z,102297.72
2023-04-06T21:01:58.272Z,102297.16
2023-04-06T21:04:14.482Z,102300.00
2023-04-06T21:06:16.162Z,102299.28
2023-04-06T21:08:17.748Z,102305.69
2023-04-06T21:10:19.591Z,102298.72
2023-04-06T21:12:21.227Z,102306.09
2023-04-06T21:14:23.901Z,102305.38
2023-04-06T21:16:27.455Z,102305.53
2023-04-06T21:18:30.343Z,102299.53
2023-04-06T21:20:32.179Z,102295.25
2023-04-06T21:22:34.441Z,102298.13
2023-04-06T21:24:36.091Z,102300.06
2023-04-06T21:26:37.689Z,102301.22
2023-04-06T21:28:39.243Z,102304.19
2023-04-06T21:30:41.793Z,102307.00
2023-04-06T21:32:45.596Z,102305.31
2023-04-06T21:34:47.533Z,102303.63
2023-04-06T21:36:50.425Z,102303.72
2023-04-06T21:38:52.255Z,102309.13
2023-04-06T21:40:54.981Z,102302.16
2023-04-06T21:42:56.614Z,102305.72
2023-04-06T21:44:59.097Z,102307.69
2023-04-06T21:47:01.940Z,102304.28
2023-04-06T21:49:05.322Z,102304.56
2023-04-06T21:51:06.973Z,102309.97
2023-04-06T21:53:09.238Z,102302.16
2023-04-06T21:55:11.114Z,102297.72
2023-04-06T21:57:12.889Z,102297.84
2023-04-06T21:59:14.908Z,102302.66
2023-04-06T22:01:16.894Z,102306.34
2023-04-06T22:03:18.608Z,102304.78
2023-04-06T22:05:21.874Z,102300.53
2023-04-06T22:07:23.766Z,102302.63
2023-04-06T22:09:25.965Z,102300.91
2023-04-06T22:11:27.527Z,102300.34
2023-04-06T22:13:29.232Z,102302.31
2023-04-06T22:15:31.087Z,102306.84
2023-04-06T22:17:33.420Z,102300.72
2023-04-06T22:19:35.527Z,102301.00
2023-04-06T22:21:38.910Z,102295.72
2023-04-06T22:23:40.722Z,102304.81
2023-04-06T22:25:42.439Z,102301.41
2023-04-06T22:27:44.326Z,102305.22
2023-04-06T22:29:45.931Z,102307.06
2023-04-06T22:31:47.618Z,102302.78
2023-04-06T22:33:49.545Z,102304.63
2023-04-06T22:35:51.412Z,102303.06
2023-04-06T22:37:54.558Z,102304.16
2023-04-06T22:39:57.119Z,102297.09
2023-04-06T22:42:05.007Z,102295.22
2023-04-06T22:44:06.523Z,102297.31
2023-04-06T22:46:08.556Z,102298.06
2023-04-06T22:48:10.217Z,102297.31
2023-04-06T22:50:12.194Z,102297.31
2023-04-06T22:52:13.841Z,102297.47
2023-04-06T22:54:16.992Z,102299.31
2023-04-06T22:56:18.557Z,102292.22
2023-04-06T22:58:20.161Z,102295.88
2023-04-06T23:00:22.165Z,102302.13
2023-04-06T23:02:23.812Z,102297.75
2023-04-06T23:04:26.018Z,102300.56
2023-04-06T23:06:28.141Z,102298.00
2023-04-06T23:08:29.946Z,102291.78
2023-04-06T23:10:33.320Z,102297.16
2023-04-06T23:12:35.262Z,102305.38
2023-04-06T23:14:37.309Z,102294.59
2023-04-06T23:16:39.194Z,102300.09
2023-04-06T23:18:42.317Z,102298.41
2023-04-06T23:20:43.854Z,102296.56
2023-04-06T23:22:46.078Z,102289.59
2023-04-06T23:24:47.682Z,102286.03